Auburn, NE

8:41 AM CST on January 25, 2015 (GMT -0600)
Plattsmouth Municipal | Change Station
CLOSE
Current Station
Airport
Location: Plattsmouth,
Elevation: 1201 ft
Nearby Weather Stations
Active Advisory: Wind Advisory

Elev 1201 ft 40.95 °N, 95.92 °W | Updated 26 minutes ago

Overcast
Overcast
35 °F
Feels Like 23 °F
N
23
Wind Variable Wind from NNW
Gusts 30 mph

Today
High -- | Low -- °F
--% Chance of Precip.
Yesterday
High -- | Low -- °F
Precip. -- in
7:38 AM 5:33 PM
Waxing Crescent, 33% visible
Pressure 29.81 in
Visibility 7.0 miles
Clouds Overcast 1100 ft
Windchill 23 °F
Dew Point 32 °F
Humidity 89%
Rainfall 0.00 in
Snow Depth Not available.
UV 0 out of 12
Pollen .30 out of 12
Air Quality Not available.
Flu Activity Not available.
METAR KPMV 251415Z AUTO 33020G26KT 7SM -DZ OVC011 02/00 A2981 RMK AO2 T00161001

More Conditions Fewer Conditions

Pressure 29.81 in
Visibility 7.0 miles
Clouds Overcast 1100 ft
Windchill 23 °F
Dew Point 32 °F
Humidity 89%
Rainfall 0.00 in
Snow Depth Not available.
UV 0 out of 12
Pollen .30 out of 12
Air Quality Not available.
Flu Activity Not available.
METAR KPMV 251415Z AUTO 33020G26KT 7SM -DZ OVC011 02/00 A2981 RMK AO2 T00161001

More Conditions Fewer Conditions

10-Day Weather Forecast

Almanac

Astronomy

Jan. 25, 2015 Rise Set
Actual Time
Civil Twilight
Nautical Twilight
Astronomical Twilight
Moon
Length of Visible Light
Length of Day
Tomorrow will be .
, % of the Moon is Illuminated

Today's Extremes

State Highs State Lows

Community

WunderPhotos

Upload Photos

1,789,899 photos uploaded!

WunderBlogs® & News

Nearby

Air Quality

  Air Quality AQ Index Pollutant
Not available.

Snow Depth

Station Depth Elevation

Earthquake Activity

City Distance Mag. Time & Date
Minimum magnitude displayed is 2.5.

Coastal Water Temperatures

Place Temperature

Nearby Weather Stations